createdAt,value
2023-01-09T00:04:19.068Z,25.37
2023-01-09T00:09:23.077Z,26.95
2023-01-09T00:14:25.728Z,26.98
2023-01-09T00:20:08.146Z,28.13
2023-01-09T00:25:13.995Z,28.05
2023-01-09T00:30:18.728Z,26.67
2023-01-09T00:35:31.915Z,27.17
2023-01-09T00:40:36.016Z,26.85
2023-01-09T00:45:38.627Z,30.55
2023-01-09T00:50:43.812Z,28.92
2023-01-09T00:55:46.248Z,29.65
2023-01-09T01:00:51.117Z,26.58
2023-01-09T01:06:12.209Z,28.98
2023-01-09T01:11:14.949Z,30.52
2023-01-09T01:16:21.210Z,28.53
2023-01-09T01:21:23.983Z,27.55
2023-01-09T01:26:28.880Z,29.10
2023-01-09T01:31:31.316Z,30.00
2023-01-09T01:36:34.483Z,31.90
2023-01-09T01:41:37.456Z,28.45
2023-01-09T01:46:39.998Z,27.52
2023-01-09T01:51:48.579Z,21.80
2023-01-09T01:56:55.189Z,30.23
2023-01-09T02:02:00.289Z,30.05
2023-01-09T02:07:08.082Z,34.28
2023-01-09T02:12:16.785Z,31.35
2023-01-09T02:17:25.097Z,32.88
2023-01-09T02:22:37.821Z,31.33
2023-01-09T02:27:50.355Z,30.60
2023-01-09T02:33:00.142Z,29.60
2023-01-09T02:38:12.239Z,28.33
2023-01-09T02:43:14.985Z,29.33
2023-01-09T02:48:17.437Z,32.73
2023-01-09T02:53:44.708Z,29.52
2023-01-09T02:59:05.551Z,30.88
2023-01-09T03:04:19.558Z,28.90
2023-01-09T03:14:28.134Z,29.40
2023-01-09T03:19:35.603Z,32.85
2023-01-09T03:24:39.091Z,21.97
2023-01-09T03:29:43.621Z,33.97
2023-01-09T03:34:48.041Z,31.98
2023-01-09T03:40:24.514Z,32.80
2023-01-09T03:45:27.326Z,31.50
2023-01-09T03:51:05.740Z,31.83
2023-01-09T03:56:50.522Z,33.13
2023-01-09T04:01:53.111Z,31.92
2023-01-09T04:07:00.240Z,31.67
2023-01-09T04:12:24.847Z,25.83
2023-01-09T04:17:34.490Z,25.85
2023-01-09T04:22:40.253Z,25.05
2023-01-09T04:27:58.376Z,24.60
2023-01-09T04:38:24.328Z,29.35
2023-01-09T04:43:30.041Z,29.73
2023-01-09T04:48:33.656Z,29.70
2023-01-09T04:54:04.060Z,27.30
2023-01-09T05:05:20.541Z,29.65
2023-01-09T05:10:39.416Z,28.90
2023-01-09T05:15:42.433Z,27.63
2023-01-09T05:20:49.680Z,28.70
2023-01-09T05:26:24.416Z,27.45
2023-01-09T05:31:30.148Z,27.10
2023-01-09T05:36:35.181Z,28.10
2023-01-09T05:41:38.143Z,27.70
2023-01-09T05:46:45.570Z,29.00
2023-01-09T05:51:54.314Z,25.67
2023-01-09T05:56:57.744Z,28.70
2023-01-09T06:02:00.320Z,30.50
2023-01-09T06:07:07.906Z,24.85
2023-01-09T06:12:10.315Z,25.42
2023-01-09T06:17:12.742Z,27.10
2023-01-09T06:22:15.142Z,29.05
2023-01-09T06:27:17.714Z,30.17
2023-01-09T06:32:21.090Z,27.98
2023-01-09T06:37:23.528Z,28.73
2023-01-09T06:42:26.110Z,28.35
2023-01-09T06:47:28.535Z,25.92
2023-01-09T06:52:30.992Z,26.88
2023-01-09T06:57:33.418Z,31.55
2023-01-09T07:02:36.030Z,29.98
2023-01-09T07:07:40.360Z,32.53
2023-01-09T07:12:42.984Z,35.25
2023-01-09T07:17:45.475Z,41.15
2023-01-09T07:22:47.954Z,39.83
2023-01-09T07:27:54.622Z,37.05
2023-01-09T07:32:59.456Z,34.30
2023-01-09T07:38:02.276Z,31.50
2023-01-09T07:43:04.733Z,22.17
2023-01-09T07:48:07.350Z,29.42
2023-01-09T07:53:09.703Z,29.40
2023-01-09T07:58:12.070Z,28.48
2023-01-09T08:03:14.481Z,36.28
2023-01-09T08:08:17.235Z,30.00
2023-01-09T08:13:20.724Z,26.40
2023-01-09T08:18:23.109Z,25.67
2023-01-09T08:23:25.603Z,27.58
2023-01-09T08:28:28.072Z,26.23
2023-01-09T08:33:32.601Z,29.10
2023-01-09T08:38:35.317Z,26.23
2023-01-09T08:43:56.896Z,27.80
2023-01-09T08:48:59.275Z,26.77
2023-01-09T08:54:03.715Z,26.25
2023-01-09T08:59:06.165Z,30.13
2023-01-09T09:04:08.715Z,26.25
2023-01-09T09:09:11.661Z,28.95
2023-01-09T09:14:34.789Z,21.40
2023-01-09T09:19:39.800Z,28.23
2023-01-09T09:24:47.492Z,30.38
2023-01-09T09:29:50.119Z,28.15
2023-01-09T09:34:52.696Z,29.02
2023-01-09T09:39:56.777Z,27.38
2023-01-09T09:45:36.193Z,25.02
2023-01-09T09:51:21.921Z,24.13
2023-01-09T09:56:34.384Z,29.98
2023-01-09T10:01:55.959Z,30.27
2023-01-09T10:07:06.730Z,29.52
2023-01-09T10:12:29.592Z,32.10
2023-01-09T10:17:57.388Z,33.40
2023-01-09T10:23:26.109Z,33.38
2023-01-09T10:28:53.765Z,34.05
2023-01-09T10:34:28.201Z,34.90
2023-01-09T10:40:07.981Z,32.58
2023-01-09T10:45:26.721Z,32.13
2023-01-09T10:51:10.231Z,33.15
2023-01-09T10:57:00.610Z,31.50
2023-01-09T11:02:35.332Z,28.20
2023-01-09T11:08:36.835Z,29.55
2023-01-09T11:14:06.782Z,29.58
2023-01-09T11:19:44.958Z,25.45
2023-01-09T11:25:20.477Z,28.10
2023-01-09T11:31:04.069Z,32.08
2023-01-09T11:36:43.092Z,51.63
2023-01-09T11:42:49.447Z,50.78
2023-01-09T11:48:04.089Z,47.03
2023-01-09T11:59:27.255Z,43.05
2023-01-09T12:05:33.093Z,44.45
2023-01-09T12:11:09.929Z,42.97
2023-01-09T12:23:19.112Z,37.58
2023-01-09T12:28:32.546Z,31.45
2023-01-09T12:33:50.413Z,30.83
2023-01-09T12:39:32.780Z,34.22
2023-01-09T12:50:14.386Z,76.57
2023-01-09T12:55:22.584Z,110.90
2023-01-09T13:00:27.600Z,118.15
2023-01-09T13:05:34.502Z,93.38
2023-01-09T13:11:27.975Z,81.43
2023-01-09T13:16:36.263Z,61.93
2023-01-09T13:21:39.663Z,64.35
2023-01-09T13:26:55.233Z,61.30
2023-01-09T13:32:24.174Z,51.67
2023-01-09T13:37:28.238Z,54.70
2023-01-09T13:42:39.214Z,47.15
2023-01-09T13:47:42.949Z,51.40
2023-01-09T13:52:46.011Z,47.80
2023-01-09T13:58:08.875Z,43.33
2023-01-09T14:03:22.464Z,41.67
2023-01-09T14:08:27.872Z,25.95
2023-01-09T14:13:41.516Z,38.78
2023-01-09T14:18:59.234Z,50.20
2023-01-09T14:24:07.382Z,48.33
2023-01-09T14:29:43.183Z,44.70
2023-01-09T14:35:11.391Z,45.05
2023-01-09T14:40:23.145Z,36.92
2023-01-09T14:45:27.632Z,46.42
2023-01-09T14:50:35.974Z,54.83
2023-01-09T14:55:55.403Z,49.08
2023-01-09T15:07:07.813Z,40.45
2023-01-09T15:12:19.500Z,31.13
2023-01-09T15:17:27.339Z,30.92
2023-01-09T15:22:35.352Z,31.83
2023-01-09T15:27:48.028Z,29.00
2023-01-09T15:32:51.843Z,28.05
2023-01-09T15:37:55.422Z,27.55
2023-01-09T15:43:01.891Z,27.65
2023-01-09T15:48:22.633Z,30.85
2023-01-09T15:53:30.100Z,33.97
2023-01-09T15:58:47.596Z,39.17
2023-01-09T16:03:50.647Z,37.65
2023-01-09T16:09:06.371Z,34.53
2023-01-09T16:14:29.108Z,40.75
2023-01-09T16:19:55.820Z,40.40
2023-01-09T16:25:28.759Z,42.33
2023-01-09T16:30:31.694Z,35.20
2023-01-09T16:35:37.241Z,38.80
2023-01-09T16:41:20.463Z,42.85
2023-01-09T16:46:23.112Z,34.10
2023-01-09T16:51:57.137Z,33.13
2023-01-09T16:57:01.094Z,53.20
2023-01-09T17:02:14.480Z,56.47
2023-01-09T17:07:37.994Z,60.45
2023-01-09T17:12:43.735Z,63.03
2023-01-09T17:17:46.406Z,67.38
2023-01-09T17:23:10.778Z,68.03
2023-01-09T17:28:34.692Z,62.70
2023-01-09T17:33:38.600Z,66.93
2023-01-09T17:44:15.901Z,59.63
2023-01-09T17:49:40.212Z,58.67
2023-01-09T17:54:51.009Z,56.75
2023-01-09T17:59:57.020Z,66.65
2023-01-09T18:05:10.113Z,69.20
2023-01-09T18:10:15.438Z,92.40
2023-01-09T18:15:18.399Z,158.88
2023-01-09T18:20:21.146Z,230.07
2023-01-09T18:25:24.020Z,178.95
2023-01-09T18:30:27.338Z,145.13
2023-01-09T18:35:31.082Z,146.57
2023-01-09T18:45:38.934Z,153.27
2023-01-09T18:51:07.746Z,122.90
2023-01-09T18:56:31.701Z,104.78
2023-01-09T19:01:34.366Z,99.03
2023-01-09T19:06:39.072Z,102.82
2023-01-09T19:16:54.639Z,95.07
2023-01-09T19:22:00.134Z,82.00
2023-01-09T19:27:09.249Z,68.07
2023-01-09T19:32:46.386Z,65.72
2023-01-09T19:38:21.646Z,66.22
2023-01-09T19:43:57.572Z,74.55
2023-01-09T19:49:07.589Z,68.47
2023-01-09T19:54:11.823Z,83.47
2023-01-09T19:59:18.980Z,106.35
2023-01-09T20:04:41.284Z,82.03
2023-01-09T20:09:44.293Z,76.75
2023-01-09T20:14:50.168Z,81.30
2023-01-09T20:31:00.122Z,76.25
2023-01-09T20:36:05.035Z,62.75
2023-01-09T20:41:22.748Z,62.58
2023-01-09T20:46:34.633Z,53.85
2023-01-09T20:51:41.865Z,50.80
2023-01-09T20:56:46.309Z,48.00
2023-01-09T21:01:49.994Z,52.70
2023-01-09T21:06:52.800Z,52.35
2023-01-09T21:11:55.336Z,69.07
2023-01-09T21:16:58.329Z,50.20
2023-01-09T21:22:01.400Z,27.38
2023-01-09T21:27:09.066Z,37.35
2023-01-09T21:32:15.308Z,38.75
2023-01-09T21:37:36.230Z,41.42
2023-01-09T21:43:10.458Z,39.90
2023-01-09T21:48:43.645Z,32.65
2023-01-09T22:00:35.273Z,36.42
2023-01-09T22:05:57.985Z,39.50
2023-01-09T22:11:33.584Z,41.63
2023-01-09T22:17:04.015Z,40.63
2023-01-09T22:22:09.270Z,55.22
2023-01-09T22:27:12.047Z,57.38
2023-01-09T22:39:07.663Z,33.92
2023-01-09T22:44:25.899Z,30.55
2023-01-09T22:49:53.343Z,26.85
2023-01-09T22:55:27.744Z,22.65
2023-01-09T23:07:49.035Z,15.20
2023-01-09T23:13:31.731Z,15.82
2023-01-09T23:19:20.249Z,16.52
2023-01-09T23:24:56.834Z,18.92
2023-01-09T23:36:26.524Z,20.25
2023-01-09T23:42:26.679Z,27.48
2023-01-09T23:53:57.927Z,27.45
2023-01-09T23:59:29.440Z,24.52
